createdAt,value
2023-04-28T00:00:05.087Z,5.43
2023-04-28T00:01:10.044Z,5.42
2023-04-28T00:02:11.591Z,5.43
2023-04-28T00:03:13.588Z,5.43
2023-04-28T00:04:15.843Z,5.43
2023-04-28T00:05:17.981Z,5.42
2023-04-28T00:06:19.553Z,5.42
2023-04-28T00:07:21.029Z,5.41
2023-04-28T00:08:26.360Z,5.41
2023-04-28T00:09:27.906Z,5.41
2023-04-28T00:10:30.743Z,5.40
2023-04-28T00:11:32.176Z,5.39
2023-04-28T00:12:33.741Z,5.39
2023-04-28T00:13:35.333Z,5.40
2023-04-28T00:14:36.992Z,5.38
2023-04-28T00:15:38.413Z,5.37
2023-04-28T00:16:40.147Z,5.36
2023-04-28T00:17:42.809Z,5.37
2023-04-28T00:18:44.384Z,5.37
2023-04-28T00:19:45.892Z,5.37
2023-04-28T00:20:48.121Z,5.35
2023-04-28T00:21:49.705Z,5.35
2023-04-28T00:22:51.160Z,5.35
2023-04-28T00:23:52.737Z,5.35
2023-04-28T00:24:54.234Z,5.34
2023-04-28T00:25:56.873Z,5.34
2023-04-28T00:26:58.537Z,5.33
2023-04-28T00:28:00.992Z,5.33
2023-04-28T00:29:02.589Z,5.33
2023-04-28T00:30:04.885Z,5.33
2023-04-28T00:31:15.814Z,5.33
2023-04-28T00:32:17.548Z,5.33
2023-04-28T00:33:19.114Z,5.33
2023-04-28T00:34:21.076Z,5.33
2023-04-28T00:35:22.853Z,5.32
2023-04-28T00:36:24.747Z,5.33
2023-04-28T00:37:26.202Z,5.34
2023-04-28T00:38:28.001Z,5.34
2023-04-28T00:39:29.805Z,5.33
2023-04-28T00:40:38.701Z,5.33
2023-04-28T00:41:40.181Z,5.32
2023-04-28T00:42:41.601Z,5.33
2023-04-28T00:43:44.919Z,5.33
2023-04-28T00:44:46.302Z,5.33
2023-04-28T00:45:51.398Z,5.32
2023-04-28T00:46:53.243Z,5.31
2023-04-28T00:47:55.826Z,5.32
2023-04-28T00:48:57.704Z,5.31
2023-04-28T00:50:01.032Z,5.31
2023-04-28T00:51:02.652Z,5.30
2023-04-28T00:52:06.282Z,5.30
2023-04-28T00:53:07.954Z,5.30
2023-04-28T00:54:14.273Z,5.28
2023-04-28T00:55:16.442Z,5.28
2023-04-28T00:56:18.960Z,5.27
2023-04-28T00:57:20.557Z,5.26
2023-04-28T00:58:23.454Z,5.26
2023-04-28T00:59:24.895Z,5.25
2023-04-28T01:00:26.380Z,5.24
2023-04-28T01:01:28.057Z,5.23
2023-04-28T01:02:30.583Z,5.22
2023-04-28T01:03:37.581Z,5.21
2023-04-28T01:04:39.586Z,5.21
2023-04-28T01:05:41.390Z,5.20
2023-04-28T01:06:43.848Z,5.18
2023-04-28T01:07:45.393Z,5.17
2023-04-28T01:08:50.360Z,5.16
2023-04-28T01:09:52.332Z,5.15
2023-04-28T01:10:57.282Z,5.14
2023-04-28T01:12:18.385Z,5.12
2023-04-28T01:13:23.412Z,5.12
2023-04-28T01:14:25.185Z,5.11
2023-04-28T01:15:27.413Z,5.10
2023-04-28T01:16:29.566Z,5.08
2023-04-28T01:17:31.712Z,5.07
2023-04-28T01:18:34.257Z,5.06
2023-04-28T01:19:36.154Z,5.05
2023-04-28T01:20:37.974Z,5.04
2023-04-28T01:21:39.656Z,5.03
2023-04-28T01:23:14.413Z,5.01
2023-04-28T01:24:17.100Z,5.00
2023-04-28T01:25:18.856Z,5.00
2023-04-28T01:26:21.072Z,4.98
2023-04-28T01:27:22.904Z,4.98
2023-04-28T01:28:24.536Z,5.00
2023-04-28T01:29:27.097Z,5.10
2023-04-28T01:32:37.807Z,5.53
2023-04-28T01:33:39.334Z,5.67
2023-04-28T01:34:41.021Z,5.80
2023-04-28T01:35:42.492Z,5.90
2023-04-28T01:36:45.477Z,6.00
2023-04-28T01:37:47.010Z,6.09
2023-04-28T01:38:51.273Z,6.17
2023-04-28T01:39:52.927Z,6.23
2023-04-28T01:40:54.959Z,6.29
2023-04-28T01:41:56.370Z,6.35
2023-04-28T01:42:58.466Z,6.41
2023-04-28T01:44:00.011Z,6.39
2023-04-28T01:45:02.730Z,6.30
2023-04-28T01:46:04.319Z,6.17
2023-04-28T01:47:06.415Z,6.04
2023-04-28T01:48:09.981Z,5.91
2023-04-28T01:49:11.500Z,5.80
2023-04-28T01:50:12.901Z,5.70
2023-04-28T01:51:14.348Z,5.61
2023-04-28T01:52:16.191Z,5.54
2023-04-28T01:53:20.230Z,5.45
2023-04-28T01:54:22.254Z,5.39
2023-04-28T01:55:23.849Z,5.34
2023-04-28T01:56:26.061Z,5.28
2023-04-28T01:57:29.261Z,5.23
2023-04-28T01:58:31.186Z,5.18
2023-04-28T01:59:32.898Z,5.14
2023-04-28T02:00:35.815Z,5.10
2023-04-28T02:01:38.538Z,5.07
2023-04-28T02:02:40.798Z,5.15
2023-04-28T02:03:42.588Z,5.27
2023-04-28T02:04:44.386Z,5.40
2023-04-28T02:05:45.869Z,5.53
2023-04-28T02:06:47.302Z,5.65
2023-04-28T02:07:48.881Z,5.76
2023-04-28T02:08:50.463Z,5.85
2023-04-28T02:09:51.877Z,5.93
2023-04-28T02:10:53.455Z,6.00
2023-04-28T02:11:55.972Z,6.07
2023-04-28T02:12:57.649Z,6.13
2023-04-28T02:13:59.275Z,6.19
2023-04-28T02:15:00.829Z,6.24
2023-04-28T02:16:02.490Z,6.29
2023-04-28T02:17:04.825Z,6.33
2023-04-28T02:18:08.844Z,6.37
2023-04-28T02:19:14.948Z,6.40
2023-04-28T02:20:16.472Z,6.43
2023-04-28T02:21:17.953Z,6.46
2023-04-28T02:22:19.876Z,6.49
2023-04-28T02:23:21.300Z,6.51
2023-04-28T02:24:22.743Z,6.54
2023-04-28T02:25:25.161Z,6.50
2023-04-28T02:26:27.108Z,6.38
2023-04-28T02:27:28.645Z,6.23
2023-04-28T02:28:30.507Z,6.09
2023-04-28T02:29:32.503Z,5.95
2023-04-28T02:30:34.063Z,5.82
2023-04-28T02:31:35.536Z,5.72
2023-04-28T02:32:36.970Z,5.61
2023-04-28T02:33:38.479Z,5.52
2023-04-28T02:34:40.134Z,5.44
2023-04-28T02:35:42.587Z,5.36
2023-04-28T02:36:44.077Z,5.30
2023-04-28T02:37:45.941Z,5.23
2023-04-28T02:38:47.526Z,5.17
2023-04-28T02:39:49.073Z,5.18
2023-04-28T02:40:59.620Z,5.25
2023-04-28T02:42:04.637Z,5.38
2023-04-28T02:43:06.133Z,5.49
2023-04-28T02:44:07.727Z,5.60
2023-04-28T02:45:09.553Z,5.71
2023-04-28T02:46:11.157Z,5.81
2023-04-28T02:47:12.605Z,5.88
2023-04-28T02:48:14.390Z,5.95
2023-04-28T02:49:16.283Z,6.01
2023-04-28T02:50:18.098Z,6.06
2023-04-28T02:51:19.589Z,6.12
2023-04-28T02:52:21.088Z,6.16
2023-04-28T02:53:22.722Z,6.20
2023-04-28T02:54:27.366Z,6.24
2023-04-28T02:55:29.651Z,6.26
2023-04-28T02:56:31.237Z,6.29
2023-04-28T02:57:36.732Z,6.32
2023-04-28T02:58:38.298Z,6.34
2023-04-28T02:59:39.770Z,6.36
2023-04-28T03:00:41.532Z,6.38
2023-04-28T03:01:43.018Z,6.41
2023-04-28T03:02:44.647Z,6.42
2023-04-28T03:03:46.429Z,6.44
2023-04-28T03:04:48.227Z,6.45
2023-04-28T03:05:49.982Z,6.46
2023-04-28T03:06:51.447Z,6.48
2023-04-28T03:07:53.330Z,6.49
2023-04-28T03:08:54.834Z,6.51
2023-04-28T03:09:56.302Z,6.51
2023-04-28T03:10:57.973Z,6.52
2023-04-28T03:11:59.544Z,6.53
2023-04-28T03:13:01.059Z,6.54
2023-04-28T03:14:02.632Z,6.55
2023-04-28T03:15:05.246Z,6.56
2023-04-28T03:16:07.271Z,6.57
2023-04-28T03:17:08.876Z,6.58
2023-04-28T03:18:10.530Z,6.57
2023-04-28T03:19:12.134Z,6.58
2023-04-28T03:20:13.642Z,6.58
2023-04-28T03:21:15.252Z,6.56
2023-04-28T03:22:16.639Z,6.50
2023-04-28T03:23:18.072Z,6.37
2023-04-28T03:24:20.444Z,6.21
2023-04-28T03:25:24.278Z,6.04
2023-04-28T03:26:26.066Z,5.89
2023-04-28T03:27:28.101Z,5.75
2023-04-28T03:28:30.064Z,5.64
2023-04-28T03:29:33.544Z,5.52
2023-04-28T03:30:36.026Z,5.43
2023-04-28T03:31:37.603Z,5.33
2023-04-28T03:32:39.161Z,5.25
2023-04-28T03:33:41.739Z,5.18
2023-04-28T03:34:43.924Z,5.12
2023-04-28T03:35:45.805Z,5.12
2023-04-28T03:36:47.445Z,5.20
2023-04-28T03:37:56.382Z,5.32
2023-04-28T03:38:58.799Z,5.44
2023-04-28T03:40:00.318Z,5.56
2023-04-28T03:41:02.410Z,5.67
2023-04-28T03:42:32.684Z,5.79
2023-04-28T03:43:44.803Z,5.88
2023-04-28T03:44:56.436Z,5.96
2023-04-28T03:45:57.926Z,6.03
2023-04-28T03:47:00.908Z,6.09
2023-04-28T03:48:02.497Z,6.15
2023-04-28T03:49:04.100Z,6.20
2023-04-28T03:50:06.572Z,6.24
2023-04-28T03:51:08.030Z,6.28
2023-04-28T03:52:09.604Z,6.32
2023-04-28T03:53:11.419Z,6.37
2023-04-28T03:54:12.876Z,6.41
2023-04-28T03:55:14.387Z,6.46
2023-04-28T03:56:16.112Z,6.49
2023-04-28T03:57:17.581Z,6.53
2023-04-28T03:58:19.079Z,6.57
2023-04-28T03:59:20.727Z,6.60
2023-04-28T04:00:23.963Z,6.63
2023-04-28T04:01:26.325Z,6.65
2023-04-28T04:02:27.925Z,6.68
2023-04-28T04:03:29.679Z,6.70
2023-04-28T04:04:31.608Z,6.75
2023-04-28T04:05:33.443Z,6.77
2023-04-28T04:06:37.896Z,6.80
2023-04-28T04:07:39.778Z,6.82
2023-04-28T04:08:42.029Z,6.87
2023-04-28T04:09:43.453Z,6.91
2023-04-28T04:10:46.128Z,6.94
2023-04-28T04:11:48.337Z,6.98
2023-04-28T04:12:49.870Z,7.02
2023-04-28T04:13:51.634Z,7.06
2023-04-28T04:14:53.204Z,7.09
2023-04-28T04:15:55.018Z,7.07
2023-04-28T04:16:57.326Z,6.98
2023-04-28T04:17:59.408Z,6.86
2023-04-28T04:19:02.679Z,6.74
2023-04-28T04:20:10.826Z,6.60
2023-04-28T04:21:12.362Z,6.50
2023-04-28T04:22:14.599Z,6.41
2023-04-28T04:23:16.306Z,6.33
2023-04-28T04:24:18.149Z,6.26
2023-04-28T04:25:22.054Z,6.21
2023-04-28T04:26:25.553Z,6.16
2023-04-28T04:27:27.029Z,6.13
2023-04-28T04:28:28.935Z,6.10
2023-04-28T04:29:31.082Z,6.08
2023-04-28T04:30:34.223Z,6.06
2023-04-28T04:31:35.992Z,6.11
2023-04-28T04:32:37.574Z,6.24
2023-04-28T04:33:39.278Z,6.40
2023-04-28T04:34:41.271Z,6.57
2023-04-28T04:35:43.246Z,6.73
2023-04-28T04:36:44.801Z,6.88
2023-04-28T04:37:46.978Z,7.02
2023-04-28T04:38:48.543Z,7.16
2023-04-28T04:39:51.870Z,7.27
2023-04-28T04:40:53.403Z,7.38
2023-04-28T04:41:55.128Z,7.46
2023-04-28T04:43:15.541Z,7.57
2023-04-28T04:44:21.239Z,7.66
2023-04-28T04:45:22.831Z,7.69
2023-04-28T04:46:25.002Z,7.62
2023-04-28T04:47:27.600Z,7.53
2023-04-28T04:48:29.341Z,7.43
2023-04-28T04:49:33.129Z,7.33
2023-04-28T04:50:34.766Z,7.26
2023-04-28T04:51:36.938Z,7.20
2023-04-28T04:52:38.795Z,7.15
2023-04-28T04:53:41.088Z,7.11
2023-04-28T04:54:42.766Z,7.09
2023-04-28T04:55:45.218Z,7.06
2023-04-28T04:56:46.863Z,7.05
2023-04-28T04:57:50.131Z,7.03
2023-04-28T04:59:06.577Z,7.02
2023-04-28T05:00:16.333Z,7.04
2023-04-28T05:01:18.110Z,7.06
2023-04-28T05:02:20.253Z,7.08
2023-04-28T05:03:22.485Z,7.11
2023-04-28T05:04:24.366Z,7.12
2023-04-28T05:05:26.602Z,7.15
2023-04-28T05:06:45.428Z,7.19
2023-04-28T05:07:47.170Z,7.22
2023-04-28T05:08:49.114Z,7.27
2023-04-28T05:09:50.599Z,7.31
2023-04-28T05:10:52.174Z,7.36
2023-04-28T05:11:54.615Z,7.42
2023-04-28T05:12:56.252Z,7.47
2023-04-28T05:13:57.830Z,7.52
2023-04-28T05:15:00.007Z,7.57
2023-04-28T05:16:01.511Z,7.60
2023-04-28T05:17:11.775Z,7.65
2023-04-28T05:18:15.409Z,7.68
2023-04-28T05:19:16.951Z,7.73
2023-04-28T05:20:18.439Z,7.77
2023-04-28T05:21:19.852Z,7.81
2023-04-28T05:22:23.219Z,7.84
2023-04-28T05:23:24.916Z,7.87
2023-04-28T05:24:27.153Z,7.90
2023-04-28T05:25:28.827Z,7.94
2023-04-28T05:26:30.719Z,7.98
2023-04-28T05:27:39.122Z,8.03
2023-04-28T05:28:40.898Z,8.10
2023-04-28T05:29:43.207Z,8.19
2023-04-28T05:30:45.138Z,8.28
2023-04-28T05:31:47.417Z,8.38
2023-04-28T05:32:49.314Z,8.47
2023-04-28T05:33:51.242Z,8.55
2023-04-28T05:34:52.724Z,8.61
2023-04-28T05:35:54.268Z,8.66
2023-04-28T05:36:55.718Z,8.71
2023-04-28T05:37:59.295Z,8.75
2023-04-28T05:39:01.201Z,8.77
2023-04-28T05:40:03.325Z,8.80
2023-04-28T05:41:05.468Z,8.81
2023-04-28T05:42:07.025Z,8.83
2023-04-28T05:43:09.686Z,8.85
2023-04-28T05:44:11.556Z,8.86
2023-04-28T05:45:14.622Z,8.88
2023-04-28T05:46:29.054Z,8.89
2023-04-28T05:47:33.330Z,8.92
2023-04-28T05:48:35.784Z,8.95
2023-04-28T05:49:37.932Z,8.98
2023-04-28T05:50:39.926Z,9.00
2023-04-28T05:51:41.617Z,9.00
2023-04-28T05:52:43.256Z,9.00
2023-04-28T05:53:48.135Z,9.01
2023-04-28T05:54:50.230Z,9.00
2023-04-28T05:55:51.977Z,9.02
2023-04-28T05:56:54.377Z,9.02
2023-04-28T05:57:55.933Z,9.03
2023-04-28T05:58:58.422Z,9.06
2023-04-28T06:00:00.739Z,9.08
2023-04-28T06:01:02.357Z,9.09
2023-04-28T06:02:03.917Z,9.12
2023-04-28T06:03:06.346Z,9.14
2023-04-28T06:04:08.526Z,9.18
2023-04-28T06:05:11.078Z,9.22
2023-04-28T06:06:13.610Z,9.26
2023-04-28T06:07:15.231Z,9.29
2023-04-28T06:08:18.809Z,9.33
2023-04-28T06:09:20.391Z,9.36
2023-04-28T06:10:22.953Z,9.41
2023-04-28T06:11:24.537Z,9.45
2023-04-28T06:12:26.249Z,9.48
2023-04-28T06:13:27.940Z,9.50
2023-04-28T06:14:31.124Z,9.53
2023-04-28T06:15:33.082Z,9.57
2023-04-28T06:16:34.813Z,9.59
2023-04-28T06:17:38.302Z,9.61
2023-04-28T06:18:39.945Z,9.65
2023-04-28T06:19:41.514Z,9.66
2023-04-28T06:20:43.725Z,9.68
2023-04-28T06:21:46.493Z,9.70
2023-04-28T06:22:49.046Z,9.75
2023-04-28T06:23:50.945Z,9.78
2023-04-28T06:24:53.013Z,9.79
2023-04-28T06:26:01.329Z,9.82
2023-04-28T06:27:03.017Z,9.86
2023-04-28T06:28:05.696Z,9.90
2023-04-28T06:29:07.278Z,9.94
2023-04-28T06:30:17.750Z,9.98
2023-04-28T06:31:19.176Z,10.02
2023-04-28T06:32:20.799Z,10.06
2023-04-28T06:33:22.351Z,10.10
2023-04-28T06:34:26.804Z,10.11
2023-04-28T06:35:28.630Z,10.13
2023-04-28T06:36:30.170Z,10.15
2023-04-28T06:37:31.688Z,10.18
2023-04-28T06:38:33.208Z,10.23
2023-04-28T06:39:35.478Z,10.26
2023-04-28T06:40:37.045Z,10.31
2023-04-28T06:41:40.549Z,10.34
2023-04-28T06:42:42.954Z,10.36
2023-04-28T06:43:53.186Z,10.40
2023-04-28T06:44:59.502Z,10.43
2023-04-28T06:46:03.009Z,10.45
2023-04-28T06:47:04.764Z,10.49
2023-04-28T06:48:07.515Z,10.52
2023-04-28T06:49:12.525Z,10.56
2023-04-28T06:50:14.222Z,10.60
2023-04-28T06:51:15.769Z,10.65
2023-04-28T06:52:17.511Z,10.69
2023-04-28T06:53:19.015Z,10.73
2023-04-28T06:54:20.816Z,10.76
2023-04-28T06:55:23.073Z,10.78
2023-04-28T06:56:25.146Z,10.81
2023-04-28T06:57:26.528Z,10.83
2023-04-28T06:58:29.706Z,10.88
2023-04-28T06:59:31.619Z,10.92
2023-04-28T07:00:33.707Z,10.96
2023-04-28T07:01:35.267Z,10.99
2023-04-28T07:02:37.099Z,11.03
2023-04-28T07:03:38.966Z,11.07
2023-04-28T07:04:40.712Z,11.09
2023-04-28T07:05:42.378Z,11.12
2023-04-28T07:06:43.933Z,11.15
2023-04-28T07:07:45.627Z,11.16
2023-04-28T07:08:47.148Z,11.19
2023-04-28T07:09:48.634Z,11.22
2023-04-28T07:10:49.991Z,11.25
2023-04-28T07:11:51.446Z,11.30
2023-04-28T07:12:52.911Z,11.35
2023-04-28T07:13:54.415Z,11.39
2023-04-28T07:14:56.041Z,11.44
2023-04-28T07:15:58.241Z,11.48
2023-04-28T07:16:59.941Z,11.52
2023-04-28T07:18:01.410Z,11.54
2023-04-28T07:19:03.090Z,11.54
2023-04-28T07:20:06.204Z,11.51
2023-04-28T07:21:07.935Z,11.48
2023-04-28T07:22:10.901Z,11.43
2023-04-28T07:23:12.275Z,11.37
2023-04-28T07:24:13.783Z,11.32
2023-04-28T07:25:15.334Z,11.28
2023-04-28T07:26:16.814Z,11.26
2023-04-28T07:27:18.246Z,11.24
2023-04-28T07:28:19.761Z,11.25
2023-04-28T07:29:21.165Z,11.28
2023-04-28T07:30:27.920Z,11.31
2023-04-28T07:31:29.879Z,11.33
2023-04-28T07:32:31.410Z,11.37
2023-04-28T07:33:32.956Z,11.41
2023-04-28T07:34:37.909Z,11.44
2023-04-28T07:35:39.828Z,11.48
2023-04-28T07:36:41.612Z,11.49
2023-04-28T07:37:43.234Z,11.50
2023-04-28T07:38:44.778Z,11.51
2023-04-28T07:39:46.682Z,11.54
2023-04-28T07:40:48.438Z,11.57
2023-04-28T07:41:50.101Z,11.61
2023-04-28T07:42:51.685Z,11.66
2023-04-28T07:43:53.183Z,11.72
2023-04-28T07:44:55.022Z,11.78
2023-04-28T07:45:56.645Z,11.83
2023-04-28T07:47:01.281Z,11.86
2023-04-28T07:48:03.240Z,11.89
2023-04-28T07:49:04.837Z,11.94
2023-04-28T07:50:07.418Z,11.98
2023-04-28T07:51:08.870Z,12.02
2023-04-28T07:52:10.797Z,12.08
2023-04-28T07:53:12.468Z,12.15
2023-04-28T07:54:14.182Z,12.20
2023-04-28T07:55:15.752Z,12.27
2023-04-28T07:56:17.419Z,12.34
2023-04-28T07:57:19.114Z,12.41
2023-04-28T07:58:20.601Z,12.49
2023-04-28T07:59:23.460Z,12.58
2023-04-28T08:00:25.665Z,12.60
2023-04-28T08:01:27.236Z,12.62
2023-04-28T08:02:29.065Z,12.62
2023-04-28T08:03:31.132Z,12.61
2023-04-28T08:04:34.170Z,12.59
2023-04-28T08:05:37.520Z,12.57
2023-04-28T08:06:40.251Z,12.55
2023-04-28T08:07:42.172Z,12.53
2023-04-28T08:08:43.733Z,12.50
2023-04-28T08:09:47.524Z,12.49
2023-04-28T08:10:50.064Z,12.46
2023-04-28T08:11:51.577Z,12.43
2023-04-28T08:12:53.048Z,12.41
2023-04-28T08:13:56.315Z,12.41
2023-04-28T08:14:57.746Z,12.42
2023-04-28T08:16:02.036Z,12.42
2023-04-28T08:17:03.619Z,12.42
2023-04-28T08:18:05.176Z,12.42
2023-04-28T08:19:07.048Z,12.43
2023-04-28T08:20:08.936Z,12.44
2023-04-28T08:21:10.810Z,12.44
2023-04-28T08:22:13.001Z,12.44
2023-04-28T08:23:14.530Z,12.44
2023-04-28T08:24:16.407Z,12.45
2023-04-28T08:25:18.041Z,12.46
2023-04-28T08:26:19.854Z,12.47
2023-04-28T08:27:22.916Z,12.49
2023-04-28T08:28:24.380Z,12.50
2023-04-28T08:29:26.280Z,12.53
2023-04-28T08:30:27.777Z,12.56
2023-04-28T08:31:29.374Z,12.58
2023-04-28T08:32:31.008Z,12.58
2023-04-28T08:33:32.504Z,12.57
2023-04-28T08:34:34.048Z,12.57
2023-04-28T08:35:35.533Z,12.57
2023-04-28T08:36:37.107Z,12.59
2023-04-28T08:37:38.611Z,12.62
2023-04-28T08:38:41.144Z,12.62
2023-04-28T08:39:43.182Z,12.61
2023-04-28T08:40:44.859Z,12.59
2023-04-28T08:41:46.355Z,12.57
2023-04-28T08:42:47.945Z,12.53
2023-04-28T08:43:49.691Z,12.51
2023-04-28T08:44:52.346Z,12.48
2023-04-28T08:45:53.962Z,12.45
2023-04-28T08:46:58.971Z,12.43
2023-04-28T08:48:03.249Z,12.40
2023-04-28T08:49:06.870Z,12.40
2023-04-28T08:50:08.691Z,12.42
2023-04-28T08:51:16.109Z,12.48
2023-04-28T08:52:18.854Z,12.54
2023-04-28T08:53:25.851Z,12.55
2023-04-28T08:54:31.339Z,12.53
2023-04-28T08:55:34.193Z,12.50
2023-04-28T08:56:35.828Z,12.48
2023-04-28T08:57:48.646Z,12.48
2023-04-28T08:58:52.454Z,12.51
2023-04-28T08:59:54.115Z,12.54
2023-04-28T09:00:55.893Z,12.55
2023-04-28T09:01:57.945Z,12.56
2023-04-28T09:02:59.678Z,12.55
2023-04-28T09:04:04.784Z,12.54
2023-04-28T09:05:10.595Z,12.52
2023-04-28T09:06:12.286Z,12.49
2023-04-28T09:07:13.860Z,12.46
2023-04-28T09:08:15.437Z,12.43
2023-04-28T09:09:32.679Z,12.40
2023-04-28T09:10:36.122Z,12.37
2023-04-28T09:11:57.623Z,12.36
2023-04-28T09:12:59.264Z,12.35
2023-04-28T09:14:12.069Z,12.34
2023-04-28T09:15:36.599Z,12.33
2023-04-28T09:16:41.285Z,12.33
2023-04-28T09:17:52.221Z,12.31
2023-04-28T09:18:57.473Z,12.29
2023-04-28T09:19:59.332Z,12.28
2023-04-28T09:21:08.400Z,12.28
2023-04-28T09:22:24.870Z,12.29
2023-04-28T09:23:28.085Z,12.30
2023-04-28T09:24:41.158Z,12.31
2023-04-28T09:25:56.843Z,12.31
2023-04-28T09:27:03.559Z,12.32
2023-04-28T09:28:21.462Z,12.34
2023-04-28T09:29:23.069Z,12.35
2023-04-28T09:30:40.385Z,12.36
2023-04-28T09:31:42.990Z,12.35
2023-04-28T09:32:44.576Z,12.35
2023-04-28T09:33:59.464Z,12.36
2023-04-28T09:35:04.031Z,12.34
2023-04-28T09:36:05.833Z,12.33
2023-04-28T09:37:20.822Z,12.33
2023-04-28T09:38:23.116Z,12.34
2023-04-28T09:39:31.157Z,12.35
2023-04-28T09:40:33.897Z,12.38
2023-04-28T09:41:40.089Z,12.40
2023-04-28T09:42:43.255Z,12.43
2023-04-28T09:43:44.737Z,12.46
2023-04-28T09:44:53.114Z,12.49
2023-04-28T09:45:55.966Z,12.49
2023-04-28T09:46:57.549Z,12.50
2023-04-28T09:48:10.212Z,12.51
2023-04-28T09:49:12.718Z,12.54
2023-04-28T09:50:16.504Z,12.55
2023-04-28T09:51:20.919Z,12.56
2023-04-28T09:52:25.237Z,12.58
2023-04-28T09:53:28.513Z,12.59
2023-04-28T09:54:32.954Z,12.59
2023-04-28T09:55:36.608Z,12.58
2023-04-28T09:56:41.351Z,12.55
2023-04-28T09:57:44.154Z,12.53
2023-04-28T09:58:47.556Z,12.54
2023-04-28T09:59:53.765Z,12.55
2023-04-28T10:00:57.593Z,12.57
2023-04-28T10:02:00.866Z,12.61
2023-04-28T10:03:04.471Z,12.64
2023-04-28T10:04:07.548Z,12.68
2023-04-28T10:05:10.261Z,12.72
2023-04-28T10:06:12.848Z,12.77
2023-04-28T10:07:16.104Z,12.83
2023-04-28T10:08:19.191Z,12.89
2023-04-28T10:09:25.921Z,12.96
2023-04-28T10:10:28.494Z,13.01
2023-04-28T10:11:30.783Z,13.03
2023-04-28T10:12:32.825Z,13.06
2023-04-28T10:13:35.925Z,13.07
2023-04-28T10:14:37.650Z,13.12
2023-04-28T10:15:40.322Z,13.17
2023-04-28T10:16:42.394Z,13.21
2023-04-28T10:17:45.797Z,13.23
2023-04-28T10:18:47.435Z,13.26
2023-04-28T10:19:51.413Z,13.30
2023-04-28T10:20:57.776Z,13.36
2023-04-28T10:22:36.393Z,13.40
2023-04-28T10:23:56.506Z,13.42
2023-04-28T10:25:23.288Z,13.42
2023-04-28T10:26:55.857Z,13.41
2023-04-28T10:27:59.551Z,13.40
2023-04-28T10:29:01.462Z,13.40
2023-04-28T10:30:26.497Z,13.38
2023-04-28T10:31:29.971Z,13.37
2023-04-28T10:32:32.746Z,13.35
2023-04-28T10:33:34.637Z,13.34
2023-04-28T10:34:36.447Z,13.32
2023-04-28T10:35:43.946Z,13.30
2023-04-28T10:36:50.306Z,13.27
2023-04-28T10:38:11.732Z,13.26
2023-04-28T10:39:13.559Z,13.28
2023-04-28T10:40:34.722Z,13.35
2023-04-28T10:41:36.202Z,13.42
2023-04-28T10:42:55.464Z,13.49
2023-04-28T10:43:56.929Z,13.58
2023-04-28T10:44:58.737Z,13.68
2023-04-28T10:46:01.584Z,13.78
2023-04-28T10:47:10.003Z,13.91
2023-04-28T10:48:11.904Z,14.05
2023-04-28T10:49:13.323Z,14.16
2023-04-28T10:50:14.938Z,14.26
2023-04-28T10:51:16.562Z,14.38
2023-04-28T10:52:34.057Z,14.51
2023-04-28T10:53:44.789Z,14.66
2023-04-28T10:55:25.060Z,14.79
2023-04-28T10:56:27.171Z,14.93
2023-04-28T10:57:28.737Z,15.01
2023-04-28T10:58:31.817Z,15.07
2023-04-28T10:59:33.299Z,15.15
2023-04-28T11:00:34.892Z,15.18
2023-04-28T11:01:36.646Z,15.14
2023-04-28T11:02:43.357Z,15.08
2023-04-28T11:03:46.510Z,15.05
2023-04-28T11:05:26.799Z,15.02
2023-04-28T11:06:36.498Z,15.00
2023-04-28T11:07:37.968Z,15.04
2023-04-28T11:08:39.740Z,15.04
2023-04-28T11:09:41.304Z,15.05
2023-04-28T11:11:12.133Z,15.05
2023-04-28T11:12:13.719Z,15.09
2023-04-28T11:13:31.105Z,15.09
2023-04-28T11:14:36.543Z,15.07
2023-04-28T11:15:38.735Z,15.03
2023-04-28T11:16:51.534Z,14.99
2023-04-28T11:17:56.794Z,14.95
2023-04-28T11:19:04.206Z,14.90
2023-04-28T11:20:08.440Z,14.86
2023-04-28T11:21:10.844Z,14.83
2023-04-28T11:22:21.136Z,14.79
2023-04-28T11:23:27.670Z,14.75
2023-04-28T11:24:30.555Z,14.72
2023-04-28T11:25:55.313Z,14.69
2023-04-28T11:26:57.796Z,14.68
2023-04-28T11:28:07.930Z,14.70
2023-04-28T11:29:10.831Z,14.70
2023-04-28T11:30:22.406Z,14.70
2023-04-28T11:31:25.540Z,14.72
2023-04-28T11:32:28.038Z,14.75
2023-04-28T11:33:30.309Z,14.78
2023-04-28T11:34:32.586Z,14.81
2023-04-28T11:35:41.826Z,14.84
2023-04-28T11:36:43.813Z,14.86
2023-04-28T11:37:46.294Z,14.89
2023-04-28T11:38:48.611Z,14.89
2023-04-28T11:39:50.574Z,14.89
2023-04-28T11:40:58.662Z,14.90
2023-04-28T11:42:09.859Z,14.93
2023-04-28T11:43:11.289Z,14.99
2023-04-28T11:44:14.426Z,15.08
2023-04-28T11:45:16.049Z,15.19
2023-04-28T11:46:23.359Z,15.29
2023-04-28T11:47:29.620Z,15.36
2023-04-28T11:48:31.730Z,15.40
2023-04-28T11:49:46.229Z,15.43
2023-04-28T11:50:47.862Z,15.46
2023-04-28T11:51:50.842Z,15.48
2023-04-28T11:52:53.766Z,15.50
2023-04-28T11:53:55.479Z,15.53
2023-04-28T11:54:59.412Z,15.57
2023-04-28T11:56:09.649Z,15.60
2023-04-28T11:57:18.900Z,15.65
2023-04-28T11:58:22.982Z,15.71
2023-04-28T11:59:26.475Z,15.76
2023-04-28T12:00:28.927Z,15.82
2023-04-28T12:01:31.833Z,15.85
2023-04-28T12:02:33.532Z,15.91
2023-04-28T12:03:45.586Z,15.98
2023-04-28T12:04:50.013Z,16.06
2023-04-28T12:05:51.988Z,16.15
2023-04-28T12:07:10.198Z,16.28
2023-04-28T12:08:11.851Z,16.56
2023-04-28T12:09:18.963Z,16.82
2023-04-28T12:10:21.306Z,17.10
2023-04-28T12:11:23.548Z,17.35
2023-04-28T12:12:39.998Z,17.52
2023-04-28T12:14:03.939Z,17.70
2023-04-28T12:15:07.382Z,17.95
2023-04-28T12:16:09.064Z,18.16
2023-04-28T12:17:26.037Z,18.38
2023-04-28T12:18:27.455Z,18.71
2023-04-28T12:19:29.031Z,19.04
2023-04-28T12:20:35.945Z,19.45
2023-04-28T12:21:39.224Z,19.80
2023-04-28T12:22:48.465Z,20.05
2023-04-28T12:23:50.092Z,20.19
2023-04-28T12:25:04.324Z,20.19
2023-04-28T12:26:05.994Z,20.10
2023-04-28T12:27:24.420Z,20.02
2023-04-28T12:28:39.636Z,19.98
2023-04-28T12:29:42.864Z,19.94
2023-04-28T12:30:44.827Z,19.85
2023-04-28T12:31:51.438Z,19.83
2023-04-28T12:32:53.813Z,19.84
2023-04-28T12:33:55.241Z,19.85
2023-04-28T12:34:56.934Z,19.82
2023-04-28T12:35:59.194Z,19.76
2023-04-28T12:37:01.762Z,19.71
2023-04-28T12:38:03.347Z,19.67
2023-04-28T12:39:04.864Z,19.60
2023-04-28T12:40:07.095Z,19.50
2023-04-28T12:41:08.572Z,19.38
2023-04-28T12:42:10.071Z,19.22
2023-04-28T12:43:11.470Z,19.08
2023-04-28T12:44:12.951Z,18.96
2023-04-28T12:45:15.757Z,18.88
2023-04-28T12:46:17.448Z,18.76
2023-04-28T12:47:19.049Z,18.63
2023-04-28T12:48:21.672Z,18.52
2023-04-28T12:49:23.137Z,18.42
2023-04-28T12:50:26.360Z,18.32
2023-04-28T12:51:29.220Z,18.22
2023-04-28T12:52:33.122Z,18.17
2023-04-28T12:53:35.020Z,18.12
2023-04-28T12:54:36.529Z,18.06
2023-04-28T12:55:40.931Z,17.94
2023-04-28T12:56:42.441Z,17.81
2023-04-28T12:57:43.882Z,17.73
2023-04-28T12:58:45.911Z,17.72
2023-04-28T12:59:47.821Z,17.74
2023-04-28T13:00:49.265Z,17.77
2023-04-28T13:01:50.846Z,17.79
2023-04-28T13:02:52.618Z,17.81
2023-04-28T13:03:54.663Z,17.84
2023-04-28T13:04:56.457Z,17.93
2023-04-28T13:05:58.096Z,18.03
2023-04-28T13:07:00.342Z,18.15
2023-04-28T13:08:01.940Z,18.29
2023-04-28T13:09:03.452Z,18.44
2023-04-28T13:10:06.016Z,18.57
2023-04-28T13:11:19.659Z,18.67
2023-04-28T13:12:24.088Z,18.76
2023-04-28T13:13:25.529Z,18.79
2023-04-28T13:14:27.916Z,18.82
2023-04-28T13:15:30.561Z,18.79
2023-04-28T13:16:33.115Z,18.76
2023-04-28T13:17:35.053Z,18.68
2023-04-28T13:18:36.561Z,18.75
2023-04-28T13:19:38.969Z,18.93
2023-04-28T13:20:40.499Z,19.17
2023-04-28T13:21:42.291Z,19.50
2023-04-28T13:22:43.748Z,19.88
2023-04-28T13:23:45.366Z,20.33
2023-04-28T13:24:47.639Z,20.52
2023-04-28T13:25:50.059Z,20.57
2023-04-28T13:26:52.012Z,20.59
2023-04-28T13:27:53.459Z,20.58
2023-04-28T13:28:55.494Z,20.54
2023-04-28T13:29:59.993Z,20.45
2023-04-28T13:31:01.526Z,20.34
2023-04-28T13:32:04.710Z,20.37
2023-04-28T13:33:06.655Z,20.56
2023-04-28T13:34:08.922Z,20.86
2023-04-28T13:35:10.563Z,21.26
2023-04-28T13:36:12.197Z,21.61
2023-04-28T13:37:14.368Z,21.81
2023-04-28T13:38:16.758Z,21.84
2023-04-28T13:39:19.492Z,21.69
2023-04-28T13:40:21.285Z,21.46
2023-04-28T13:41:22.741Z,21.22
2023-04-28T13:42:24.273Z,21.02
2023-04-28T13:43:26.139Z,20.84
2023-04-28T13:44:27.627Z,20.64
2023-04-28T13:45:30.967Z,20.47
2023-04-28T13:46:32.442Z,20.27
2023-04-28T13:47:34.206Z,20.09
2023-04-28T13:48:36.042Z,19.90
2023-04-28T13:49:39.056Z,19.72
2023-04-28T13:50:40.567Z,19.52
2023-04-28T13:51:42.070Z,19.21
2023-04-28T13:52:43.609Z,18.87
2023-04-28T13:53:46.131Z,18.67